Time;durP1;ratioP1;P1;durP2;ratioP2;P2;SDS_P1;SDS_P2;PMS_P1;PMS_P2;Temp;Humidity;BMP_temperature;BMP_pressure;BME280_temperature;BME280_humidity;BME280_pressure;Samples;Min_cycle;Max_cycle;Signal;HPM_P1;HPM_P2
2023/09/03 00:01:51;;;;;;;11.52;8.43;;;14.20;99.90;;;;;;5046546;28;20110;-71
2023/09/03 00:04:17;;;;;;;11.35;7.38;;;14.20;99.90;;;;;;5072727;28;20036;-71
2023/09/03 00:06:43;;;;;;;10.07;7.85;;;14.20;99.90;;;;;;5058122;28;20120;-71
2023/09/03 00:09:08;;;;;;;11.35;8.25;;;14.20;99.90;;;;;;5063585;28;20048;-71
2023/09/03 00:11:34;;;;;;;10.27;7.47;;;14.10;99.90;;;;;;5045801;28;20053;-71
2023/09/03 00:14:00;;;;;;;10.63;7.80;;;14.10;99.90;;;;;;5070069;28;20130;-71
2023/09/03 00:16:26;;;;;;;10.25;8.20;;;14.00;99.90;;;;;;5066583;28;20079;-71
2023/09/03 00:18:52;;;;;;;9.73;7.70;;;14.00;99.90;;;;;;5066488;28;20049;-71
2023/09/03 00:21:17;;;;;;;10.77;8.32;;;14.00;99.90;;;;;;5065719;28;20056;-71
2023/09/03 00:23:43;;;;;;;13.35;7.63;;;13.90;99.90;;;;;;5066239;28;20048;-72
2023/09/03 00:26:18;;;;;;;10.52;7.63;;;13.90;99.90;;;;;;5063874;28;20079;-71
2023/09/03 00:28:43;;;;;;;10.52;7.68;;;13.80;99.90;;;;;;5061714;28;20173;-71
2023/09/03 00:31:09;;;;;;;10.18;7.47;;;13.90;99.90;;;;;;5064450;28;20256;-71
2023/09/03 00:33:36;;;;;;;10.80;7.22;;;13.80;99.90;;;;;;5065370;28;20052;-71
2023/09/03 00:36:04;;;;;;;10.07;7.72;;;13.80;99.90;;;;;;5061109;28;20044;-71
2023/09/03 00:38:30;;;;;;;9.95;7.68;;;13.80;99.90;;;;;;5062887;28;20596;-71
2023/09/03 00:40:56;;;;;;;10.45;7.72;;;13.70;99.90;;;;;;5063156;28;20173;-71
2023/09/03 00:43:22;;;;;;;10.15;7.60;;;13.70;99.90;;;;;;5065397;28;20044;-71
2023/09/03 00:45:49;;;;;;;12.10;7.82;;;13.70;99.90;;;;;;5063262;28;20054;-71
2023/09/03 00:48:22;;;;;;;10.35;7.13;;;13.60;99.90;;;;;;5064891;28;20513;-71
2023/09/03 00:50:49;;;;;;;11.25;7.70;;;13.70;99.90;;;;;;5032782;28;20053;-72
2023/09/03 00:53:16;;;;;;;12.68;7.50;;;13.60;99.90;;;;;;5030861;28;20056;-69
2023/09/03 00:55:45;;;;;;;10.27;7.35;;;13.60;99.90;;;;;;5062987;28;20037;-69
2023/09/03 00:58:13;;;;;;;9.25;6.60;;;13.60;99.90;;;;;;5060799;28;20056;-69
2023/09/03 01:00:39;;;;;;;8.75;6.93;;;13.60;99.90;;;;;;5063836;28;20410;-69
2023/09/03 01:03:05;;;;;;;10.25;7.35;;;13.50;99.90;;;;;;5064886;28;20040;-68
2023/09/03 01:05:31;;;;;;;9.93;7.45;;;13.50;99.90;;;;;;5083085;28;20048;-69
2023/09/03 01:08:01;;;;;;;8.98;7.25;;;13.50;99.90;;;;;;5056707;28;20076;-70
2023/09/03 01:10:42;;;;;;;9.07;6.65;;;13.50;99.90;;;;;;5066512;28;20041;-69
2023/09/03 01:13:26;;;;;;;10.25;7.50;;;13.40;99.90;;;;;;5047703;28;20055;-69
2023/09/03 01:15:55;;;;;;;9.82;6.68;;;13.40;99.90;;;;;;5063533;28;20130;-68
2023/09/03 01:18:26;;;;;;;9.10;6.53;;;13.40;99.90;;;;;;5043566;28;20040;-68
2023/09/03 01:21:04;;;;;;;9.38;7.15;;;13.40;99.90;;;;;;5062020;28;20056;-68
2023/09/03 01:23:55;;;;;;;10.68;7.13;;;13.40;99.90;;;;;;5088112;28;20525;-68
2023/09/03 01:26:43;;;;;;;9.65;7.03;;;13.40;99.90;;;;;;5054710;28;20394;-68
2023/09/03 01:29:10;;;;;;;9.98;6.72;;;13.40;99.90;;;;;;5064968;28;20528;-68
2023/09/03 01:31:37;;;;;;;9.57;6.65;;;13.40;99.90;;;;;;5064809;28;20048;-68
2023/09/03 01:34:03;;;;;;;9.45;6.18;;;13.30;99.90;;;;;;5063798;28;20463;-68
2023/09/03 01:36:33;;;;;;;8.73;6.32;;;13.30;99.90;;;;;;5062723;28;20089;-68
2023/09/03 01:39:03;;;;;;;11.35;6.90;;;13.30;99.90;;;;;;5066365;28;20043;-68
2023/09/03 01:41:38;;;;;;;9.13;6.80;;;13.30;99.90;;;;;;5066076;28;20053;-68
2023/09/03 01:44:08;;;;;;;12.20;6.55;;;13.30;99.90;;;;;;5060868;28;20456;-68
2023/09/03 01:47:09;;;;;;;10.05;6.10;;;13.30;99.90;;;;;;5066846;28;20391;-68
2023/09/03 01:49:46;;;;;;;9.20;6.87;;;13.30;99.90;;;;;;5068299;28;20067;-68
2023/09/03 01:52:35;;;;;;;15.68;6.47;;;13.20;99.90;;;;;;5048211;28;20448;-68
2023/09/03 01:55:05;;;;;;;8.95;6.88;;;13.30;99.90;;;;;;5063957;28;20087;-68
2023/09/03 01:57:35;;;;;;;8.85;6.47;;;13.20;99.90;;;;;;5062556;28;20048;-68
2023/09/03 02:00:06;;;;;;;9.07;6.88;;;13.20;99.90;;;;;;5047336;28;20127;-68
2023/09/03 02:02:33;;;;;;;9.02;6.90;;;13.20;99.90;;;;;;5062457;28;20282;-69
2023/09/03 02:04:59;;;;;;;10.93;6.90;;;13.20;99.90;;;;;;5060244;28;20059;-68
2023/09/03 02:07:25;;;;;;;11.32;6.68;;;13.20;99.90;;;;;;5065966;28;20315;-69
2023/09/03 02:09:51;;;;;;;9.27;6.97;;;13.20;99.90;;;;;;5066076;28;20102;-68
2023/09/03 02:12:23;;;;;;;10.38;6.45;;;13.20;99.90;;;;;;5065203;28;20119;-68
2023/09/03 02:14:54;;;;;;;10.15;7.28;;;13.20;99.90;;;;;;5066398;28;20071;-68
2023/09/03 02:17:20;;;;;;;;;;;13.20;99.90;;;;;;5064679;28;20064;-68
2023/09/03 02:19:50;;;;;;;10.43;6.88;;;13.10;99.90;;;;;;5063436;28;19928;-69
2023/09/03 02:22:16;;;;;;;14.07;6.78;;;13.10;99.90;;;;;;5066046;28;20036;-69
2023/09/03 02:24:42;;;;;;;10.38;6.90;;;13.10;99.90;;;;;;5048195;28;20063;-68
2023/09/03 02:27:08;;;;;;;9.90;6.93;;;13.10;99.90;;;;;;5045802;28;20447;-68
2023/09/03 02:29:34;;;;;;;8.60;6.43;;;13.10;99.90;;;;;;5064494;28;20067;-68
2023/09/03 02:32:00;;;;;;;10.25;7.30;;;13.10;99.90;;;;;;5064627;28;20324;-68
2023/09/03 02:34:26;;;;;;;9.00;6.80;;;13.10;99.90;;;;;;5059426;28;20043;-68
2023/09/03 02:36:52;;;;;;;9.70;7.15;;;13.10;99.90;;;;;;5058392;28;20052;-68
2023/09/03 02:39:18;;;;;;;10.00;7.03;;;13.10;99.90;;;;;;5087153;28;20083;-68
2023/09/03 02:41:43;;;;;;;9.32;6.78;;;13.00;99.90;;;;;;5065898;28;20042;-68
2023/09/03 02:44:09;;;;;;;8.77;6.78;;;13.00;99.90;;;;;;5065036;28;20029;-68
2023/09/03 02:46:35;;;;;;;9.73;6.63;;;13.00;99.90;;;;;;5065180;28;20040;-68
2023/09/03 02:49:02;;;;;;;9.23;7.15;;;13.00;99.90;;;;;;5063082;28;20147;-68
2023/09/03 02:51:28;;;;;;;9.55;6.68;;;13.00;99.90;;;;;;5058462;28;20084;-68
2023/09/03 02:53:57;;;;;;;8.88;6.60;;;13.00;99.90;;;;;;5045377;28;20051;-67
2023/09/03 02:56:23;;;;;;;9.25;6.53;;;12.90;99.90;;;;;;5064553;28;20543;-68
2023/09/03 02:58:50;;;;;;;9.82;6.57;;;12.90;99.90;;;;;;5065691;28;20501;-68
2023/09/03 03:01:18;;;;;;;8.90;6.50;;;12.90;99.90;;;;;;5061381;28;20383;-68
2023/09/03 03:03:45;;;;;;;10.23;7.22;;;12.90;99.90;;;;;;5061377;28;20052;-68
2023/09/03 03:06:11;;;;;;;9.02;6.78;;;12.90;99.90;;;;;;5064888;28;20040;-68
2023/09/03 03:08:37;;;;;;;9.35;7.18;;;12.90;99.90;;;;;;5064850;28;20044;-68
2023/09/03 03:11:08;;;;;;;10.50;7.20;;;12.90;99.90;;;;;;5089002;28;20505;-68
2023/09/03 03:13:34;;;;;;;8.85;6.38;;;12.80;99.90;;;;;;5046214;28;20064;-68
2023/09/03 03:16:11;;;;;;;8.98;6.30;;;12.80;99.90;;;;;;5063296;28;20059;-68
2023/09/03 03:18:38;;;;;;;9.52;6.53;;;12.80;99.90;;;;;;5066803;28;20048;-68
2023/09/03 03:21:09;;;;;;;9.70;6.95;;;12.80;99.90;;;;;;5066810;28;20405;-68
2023/09/03 03:23:36;;;;;;;;;;;12.80;99.90;;;;;;5066637;28;20462;-68
2023/09/03 03:26:02;;;;;;;8.25;6.18;;;12.70;99.90;;;;;;5059891;28;19925;-67
2023/09/03 03:28:31;;;;;;;8.32;5.97;;;12.70;99.90;;;;;;5061891;28;20051;-68
2023/09/03 03:31:00;;;;;;;9.23;6.68;;;12.70;99.90;;;;;;5063353;28;20083;-67
2023/09/03 03:33:27;;;;;;;8.48;6.03;;;12.60;99.90;;;;;;5065552;28;20076;-67
2023/09/03 03:35:52;;;;;;;8.80;6.05;;;12.60;99.90;;;;;;5063937;28;20570;-68
2023/09/03 03:38:18;;;;;;;10.43;6.30;;;12.60;99.90;;;;;;5066028;28;20056;-68
2023/09/03 03:40:44;;;;;;;9.30;6.28;;;12.60;99.90;;;;;;5066261;28;20560;-68
2023/09/03 03:43:09;;;;;;;13.65;6.15;;;12.60;99.90;;;;;;5065704;28;20405;-68
2023/09/03 03:45:36;;;;;;;8.27;6.00;;;12.60;99.90;;;;;;5064175;28;20052;-67
2023/09/03 03:48:02;;;;;;;8.55;6.07;;;12.50;99.90;;;;;;5065207;28;20048;-67
2023/09/03 03:50:31;;;;;;;9.35;6.72;;;12.50;99.90;;;;;;5065847;28;20052;-67
2023/09/03 03:52:56;;;;;;;7.68;5.45;;;12.50;99.90;;;;;;5049332;28;20481;-67
2023/09/03 03:55:22;;;;;;;7.75;5.45;;;12.40;99.90;;;;;;5064319;28;20072;-67
2023/09/03 03:57:48;;;;;;;8.77;5.78;;;12.40;99.90;;;;;;5052133;28;20122;-67
2023/09/03 04:00:14;;;;;;;8.77;5.57;;;12.40;99.90;;;;;;5062235;28;20048;-68
2023/09/03 04:02:39;;;;;;;8.07;5.65;;;12.50;99.90;;;;;;5066351;28;20058;-67
2023/09/03 04:05:05;;;;;;;7.68;5.43;;;12.40;99.90;;;;;;5065020;28;20516;-67
2023/09/03 04:07:31;;;;;;;9.05;5.40;;;12.40;99.90;;;;;;5063573;28;20037;-67
2023/09/03 04:09:59;;;;;;;9.82;6.30;;;12.40;99.90;;;;;;5064709;28;20509;-67
2023/09/03 04:12:24;;;;;;;8.60;6.30;;;12.40;99.90;;;;;;5065435;28;20044;-68
2023/09/03 04:14:50;;;;;;;9.23;6.28;;;12.40;99.90;;;;;;5046781;28;20040;-67
2023/09/03 04:17:16;;;;;;;8.85;5.82;;;12.40;99.90;;;;;;5063533;28;20072;-67
2023/09/03 04:19:46;;;;;;;8.48;5.65;;;12.40;99.90;;;;;;5066059;28;20048;-67
2023/09/03 04:22:13;;;;;;;8.48;6.13;;;12.40;99.90;;;;;;5065843;28;20052;-67
2023/09/03 04:24:38;;;;;;;7.60;5.45;;;12.30;99.90;;;;;;5062730;28;20056;-67
2023/09/03 04:27:04;;;;;;;8.38;5.72;;;12.30;99.90;;;;;;5044880;28;20762;-67
2023/09/03 04:29:30;;;;;;;8.20;5.75;;;12.40;99.90;;;;;;5048796;28;20052;-67
2023/09/03 04:31:56;;;;;;;8.63;5.65;;;12.30;99.90;;;;;;5065461;28;20448;-67
2023/09/03 04:34:21;;;;;;;7.50;5.53;;;12.30;99.90;;;;;;5062707;28;20045;-67
2023/09/03 04:36:47;;;;;;;8.00;5.35;;;12.30;99.90;;;;;;5055375;28;20387;-67
2023/09/03 04:39:13;;;;;;;9.50;5.57;;;12.30;99.90;;;;;;5064730;28;20036;-68
2023/09/03 04:41:39;;;;;;;8.35;5.95;;;12.30;99.90;;;;;;5066194;28;20085;-67
2023/09/03 04:44:10;;;;;;;8.90;5.68;;;12.50;99.90;;;;;;5064540;28;20384;-67
2023/09/03 04:46:36;;;;;;;7.50;6.05;;;12.30;99.90;;;;;;5061616;28;20405;-68
2023/09/03 04:49:02;;;;;;;8.50;5.10;;;12.30;99.90;;;;;;5066244;28;20052;-67
2023/09/03 04:51:27;;;;;;;8.05;5.47;;;12.20;99.90;;;;;;5064204;28;20048;-68
2023/09/03 04:53:54;;;;;;;9.02;5.00;;;12.20;99.90;;;;;;5063303;28;20047;-67
2023/09/03 04:56:20;;;;;;;9.38;5.22;;;12.20;99.90;;;;;;5064100;28;20040;-68
2023/09/03 04:58:45;;;;;;;7.85;5.57;;;12.20;99.90;;;;;;5064200;28;20060;-67
2023/09/03 05:01:16;;;;;;;8.57;5.53;;;12.20;99.90;;;;;;5060159;28;20127;-68
2023/09/03 05:03:42;;;;;;;8.70;5.40;;;12.20;99.90;;;;;;5061154;28;20044;-67
2023/09/03 05:06:15;;;;;;;9.00;5.43;;;12.20;99.90;;;;;;5059799;28;20306;-68
2023/09/03 05:08:42;;;;;;;8.13;4.80;;;12.20;99.90;;;;;;5058922;28;20040;-68
2023/09/03 05:11:12;;;;;;;6.97;4.97;;;12.20;99.90;;;;;;5059876;28;20080;-68
2023/09/03 05:13:39;;;;;;;9.00;5.18;;;12.20;99.90;;;;;;5063642;28;20102;-68
2023/09/03 05:16:05;;;;;;;11.18;5.80;;;12.20;99.90;;;;;;5042713;28;21732;-67
2023/09/03 05:18:33;;;;;;;9.20;5.35;;;12.20;99.90;;;;;;5064570;28;20045;-68
2023/09/03 05:21:05;;;;;;;8.98;5.25;;;12.20;99.90;;;;;;5066758;28;20705;-67
2023/09/03 05:23:30;;;;;;;8.05;5.47;;;12.20;99.90;;;;;;5066046;28;20063;-68
2023/09/03 05:25:56;;;;;;;7.63;5.30;;;12.20;99.90;;;;;;5067906;28;20526;-68
2023/09/03 05:28:22;;;;;;;8.65;5.35;;;12.20;99.90;;;;;;5068507;28;20161;-68
2023/09/03 05:30:51;;;;;;;9.73;5.50;;;12.20;99.90;;;;;;5066361;28;20036;-67
2023/09/03 05:33:16;;;;;;;8.25;5.35;;;12.20;99.90;;;;;;5067046;28;20049;-67
2023/09/03 05:35:45;;;;;;;9.07;5.57;;;12.20;99.90;;;;;;5046822;28;20056;-67
2023/09/03 05:38:10;;;;;;;7.30;5.25;;;12.30;99.90;;;;;;5058658;28;20511;-68
2023/09/03 05:40:36;;;;;;;8.75;6.15;;;12.30;99.90;;;;;;5062854;28;20123;-67
2023/09/03 05:43:02;;;;;;;8.80;5.82;;;12.30;99.90;;;;;;5065335;28;20040;-68
2023/09/03 05:45:28;;;;;;;7.90;5.57;;;12.30;99.90;;;;;;5061791;28;20052;-67
2023/09/03 05:47:54;;;;;;;7.80;5.35;;;12.30;99.90;;;;;;5045712;28;20051;-67
2023/09/03 05:50:20;;;;;;;8.00;5.60;;;12.30;99.90;;;;;;5062027;28;20044;-68
2023/09/03 05:52:45;;;;;;;7.57;5.47;;;12.30;99.90;;;;;;5060576;28;20444;-68
2023/09/03 05:55:11;;;;;;;7.75;5.68;;;12.30;99.90;;;;;;5066609;28;20043;-68
2023/09/03 05:57:37;;;;;;;8.55;5.70;;;12.40;99.90;;;;;;5063764;28;20079;-68
2023/09/03 06:00:05;;;;;;;8.57;6.10;;;12.40;99.90;;;;;;5045977;28;20445;-68
2023/09/03 06:02:33;;;;;;;8.63;5.78;;;12.40;99.90;;;;;;5066247;28;20060;-68
2023/09/03 06:04:59;;;;;;;10.18;5.97;;;12.50;99.90;;;;;;5062196;28;20080;-68
2023/09/03 06:07:24;;;;;;;7.60;5.35;;;12.50;99.90;;;;;;5064570;28;20079;-68
2023/09/03 06:09:50;;;;;;;8.77;6.57;;;12.50;99.90;;;;;;5062865;28;20056;-68
2023/09/03 06:12:16;;;;;;;8.23;6.78;;;12.50;99.90;;;;;;5062066;28;20040;-67
2023/09/03 06:14:41;;;;;;;8.85;6.25;;;12.60;99.90;;;;;;5064993;28;20048;-68
2023/09/03 06:17:07;;;;;;;9.93;6.60;;;12.60;99.90;;;;;;5060030;28;20062;-68
2023/09/03 06:19:33;;;;;;;11.77;7.55;;;12.60;99.90;;;;;;5062289;28;20044;-68
2023/09/03 06:21:59;;;;;;;11.77;8.02;;;12.70;99.90;;;;;;5063318;28;20070;-68
2023/09/03 06:24:24;;;;;;;11.38;7.97;;;12.70;99.90;;;;;;5062335;28;20084;-68
2023/09/03 06:26:50;;;;;;;9.63;7.88;;;12.80;99.90;;;;;;5063158;28;20044;-68
2023/09/03 06:29:16;;;;;;;11.18;8.15;;;12.80;99.90;;;;;;5046745;28;20032;-68
2023/09/03 06:31:41;;;;;;;9.57;7.80;;;12.90;99.90;;;;;;5059917;28;20603;-68
2023/09/03 06:34:08;;;;;;;8.90;7.15;;;13.00;99.90;;;;;;5034978;28;20045;-68
2023/09/03 06:36:34;;;;;;;10.95;7.80;;;13.00;99.90;;;;;;5064336;28;20406;-68
2023/09/03 06:39:00;;;;;;;11.90;7.57;;;13.10;99.90;;;;;;5062431;28;20039;-68
2023/09/03 06:41:25;;;;;;;9.73;7.10;;;13.10;99.90;;;;;;5043802;28;20647;-68
2023/09/03 06:43:51;;;;;;;14.40;7.60;;;13.20;99.90;;;;;;5058224;28;20393;-68
2023/09/03 06:46:17;;;;;;;8.82;6.57;;;13.20;99.90;;;;;;5061656;28;20033;-68
2023/09/03 06:48:43;;;;;;;8.88;6.13;;;13.20;99.90;;;;;;5057570;28;20636;-68
2023/09/03 06:51:10;;;;;;;8.77;6.40;;;13.30;99.90;;;;;;5061710;28;20047;-68
2023/09/03 06:53:36;;;;;;;9.43;6.15;;;13.30;99.90;;;;;;5057757;28;20052;-68
2023/09/03 06:56:01;;;;;;;8.57;6.90;;;13.40;99.90;;;;;;5049722;28;20516;-68
2023/09/03 06:58:27;;;;;;;9.27;6.72;;;13.40;99.90;;;;;;5053820;28;20071;-68
2023/09/03 07:00:53;;;;;;;7.68;5.53;;;13.50;99.90;;;;;;5044968;28;20048;-68
2023/09/03 07:03:18;;;;;;;9.27;6.22;;;13.50;99.90;;;;;;5060858;28;20144;-68
2023/09/03 07:05:44;;;;;;;9.90;6.60;;;13.60;99.90;;;;;;5052293;28;20045;-68
2023/09/03 07:08:10;;;;;;;14.52;6.88;;;13.70;99.90;;;;;;5048785;28;20113;-68
2023/09/03 07:10:36;;;;;;;9.45;6.50;;;13.70;99.90;;;;;;5044219;28;20137;-68
2023/09/03 07:13:03;;;;;;;9.05;6.35;;;13.90;99.90;;;;;;5061873;28;20052;-68
2023/09/03 07:15:28;;;;;;;9.82;5.65;;;14.00;99.90;;;;;;5046421;28;20048;-68
2023/09/03 07:17:54;;;;;;;7.38;4.97;;;14.00;99.90;;;;;;5062470;28;20056;-68
2023/09/03 07:20:20;;;;;;;7.88;4.45;;;14.20;99.90;;;;;;5056855;28;20045;-68
2023/09/03 07:22:46;;;;;;;6.85;4.20;;;14.30;99.90;;;;;;5061600;28;20137;-68
2023/09/03 07:25:11;;;;;;;7.80;5.05;;;14.40;99.90;;;;;;5062530;28;20039;-68
2023/09/03 07:27:40;;;;;;;8.55;5.13;;;14.50;99.90;;;;;;5046638;28;20133;-68
2023/09/03 07:30:09;;;;;;;6.93;4.75;;;14.70;99.90;;;;;;5060453;28;20076;-69
2023/09/03 07:32:37;;;;;;;6.82;4.40;;;14.80;99.90;;;;;;5045385;28;20123;-69
2023/09/03 07:35:04;;;;;;;6.47;4.45;;;15.00;99.90;;;;;;5062416;28;20044;-68
2023/09/03 07:37:31;;;;;;;9.80;5.25;;;15.20;99.90;;;;;;5062410;28;20388;-68
2023/09/03 07:39:57;;;;;;;7.38;4.68;;;15.30;99.90;;;;;;5058734;28;20041;-69
2023/09/03 07:42:22;;;;;;;7.55;4.32;;;15.50;99.90;;;;;;5060346;28;20055;-69
2023/09/03 07:44:48;;;;;;;7.70;4.60;;;15.60;99.90;;;;;;5060498;28;20053;-68
2023/09/03 07:47:14;;;;;;;7.80;4.72;;;15.70;99.90;;;;;;5055101;28;20040;-68
2023/09/03 07:49:39;;;;;;;8.32;4.25;;;15.80;99.90;;;;;;5056845;28;20580;-69
2023/09/03 07:52:07;;;;;;;8.32;4.70;;;15.90;99.90;;;;;;5059700;28;20647;-69
2023/09/03 07:54:32;;;;;;;6.47;4.15;;;16.00;99.90;;;;;;5083956;27;20134;-69
2023/09/03 07:56:58;;;;;;;8.93;4.82;;;16.10;99.90;;;;;;5054535;28;20083;-69
2023/09/03 07:59:24;;;;;;;8.25;4.97;;;16.20;99.90;;;;;;5059551;28;20041;-69
2023/09/03 08:01:49;;;;;;;6.90;4.65;;;16.20;99.90;;;;;;5058380;28;20076;-69
2023/09/03 08:04:15;;;;;;;9.75;4.72;;;16.30;99.90;;;;;;5063101;28;20041;-68
2023/09/03 08:06:41;;;;;;;7.93;4.15;;;16.40;99.90;;;;;;5066089;28;20518;-69
2023/09/03 08:09:07;;;;;;;8.98;5.22;;;16.50;99.90;;;;;;5060191;28;20051;-69
2023/09/03 08:11:32;;;;;;;7.85;4.93;;;16.60;99.90;;;;;;5064589;28;20041;-69
2023/09/03 08:14:00;;;;;;;8.38;4.40;;;16.70;99.90;;;;;;5061428;28;20079;-69
2023/09/03 08:16:26;;;;;;;8.45;3.88;;;16.80;99.90;;;;;;5042956;28;20064;-70
2023/09/03 08:18:52;;;;;;;8.43;3.85;;;16.90;99.90;;;;;;5057528;28;20055;-70
2023/09/03 08:21:18;;;;;;;6.90;3.72;;;17.00;99.90;;;;;;5040444;28;20496;-69
2023/09/03 08:23:44;;;;;;;8.50;3.90;;;17.10;99.90;;;;;;5061383;28;20036;-70
2023/09/03 08:26:10;;;;;;;10.90;4.25;;;17.20;99.90;;;;;;5062258;28;20036;-70
2023/09/03 08:28:35;;;;;;;6.47;3.47;;;17.30;99.90;;;;;;5062907;28;20444;-70
2023/09/03 08:31:02;;;;;;;7.65;3.97;;;17.50;99.90;;;;;;5060544;28;20132;-70
2023/09/03 08:33:28;;;;;;;7.63;3.55;;;17.50;99.90;;;;;;5061946;28;20846;-70
2023/09/03 08:35:53;;;;;;;6.30;3.47;;;17.60;99.90;;;;;;5061408;28;20041;-70
2023/09/03 08:38:19;;;;;;;7.85;3.05;;;17.70;99.90;;;;;;5062783;28;20839;-70
2023/09/03 08:40:45;;;;;;;7.45;2.90;;;17.80;99.90;;;;;;5062802;28;20980;-70
2023/09/03 08:43:14;;;;;;;7.63;3.15;;;17.90;99.90;;;;;;5063635;28;20143;-70
2023/09/03 08:45:53;;;;;;;5.43;2.60;;;17.90;99.90;;;;;;5064917;28;20044;-70
2023/09/03 08:48:19;;;;;;;5.85;2.40;;;18.00;99.90;;;;;;5043278;28;20059;-70
2023/09/03 08:50:46;;;;;;;6.25;2.70;;;18.10;99.90;;;;;;5062874;28;20051;-71
2023/09/03 08:53:15;;;;;;;5.88;2.63;;;18.20;99.90;;;;;;5068464;28;20487;-72
2023/09/03 08:55:42;;;;;;;6.10;2.80;;;18.20;99.90;;;;;;5068404;28;20049;-72
2023/09/03 08:58:08;;;;;;;5.50;2.45;;;18.30;99.90;;;;;;5050025;28;20178;-71
2023/09/03 09:00:35;;;;;;;6.70;2.20;;;18.40;99.90;;;;;;5049056;28;20467;-71
2023/09/03 09:03:03;;;;;;;5.13;2.20;;;18.40;99.90;;;;;;5068115;28;20083;-71
2023/09/03 09:05:29;;;;;;;5.38;2.50;;;18.50;99.90;;;;;;5067259;28;20032;-71
2023/09/03 09:07:55;;;;;;;4.93;2.40;;;18.50;99.90;;;;;;5060037;28;20056;-71
2023/09/03 09:10:26;;;;;;;6.32;2.63;;;18.50;99.90;;;;;;5057655;28;20079;-71
2023/09/03 09:13:00;;;;;;;5.90;2.28;;;18.60;99.90;;;;;;5047949;28;20072;-70
2023/09/03 09:15:26;;;;;;;6.90;2.10;;;18.60;99.90;;;;;;5045759;28;20114;-70
2023/09/03 09:17:51;;;;;;;6.03;1.92;;;18.60;99.90;;;;;;5058802;28;20056;-71
2023/09/03 09:20:20;;;;;;;4.97;2.28;;;18.70;99.90;;;;;;5063440;28;20037;-71
2023/09/03 09:22:47;;;;;;;6.10;2.20;;;18.70;99.90;;;;;;5090431;28;20099;-71
2023/09/03 09:25:24;;;;;;;6.25;2.20;;;18.70;99.90;;;;;;5058689;28;20080;-70
2023/09/03 09:27:53;;;;;;;6.10;2.20;;;18.70;99.90;;;;;;5065051;28;20673;-71
2023/09/03 09:30:21;;;;;;;6.50;2.15;;;18.80;99.90;;;;;;5064803;28;20067;-71
2023/09/03 09:32:47;;;;;;;5.38;2.40;;;18.90;99.90;;;;;;5048267;28;20051;-71
2023/09/03 09:35:25;;;;;;;5.28;2.22;;;18.90;99.90;;;;;;5062810;28;20581;-71
2023/09/03 09:37:51;;;;;;;5.22;2.47;;;19.00;99.90;;;;;;5063667;28;20897;-71
2023/09/03 09:40:29;;;;;;;5.72;2.20;;;19.00;99.90;;;;;;5046142;28;20037;-71
2023/09/03 09:43:01;;;;;;;6.32;2.58;;;19.10;99.90;;;;;;5046393;28;20043;-71
2023/09/03 09:45:27;;;;;;;6.35;2.20;;;19.20;99.90;;;;;;5064900;28;20037;-71
2023/09/03 09:48:07;;;;;;;4.80;1.90;;;19.20;99.90;;;;;;5069547;28;20456;-71
2023/09/03 09:50:37;;;;;;;4.70;2.10;;;19.30;99.90;;;;;;5102427;28;20180;-70
2023/09/03 09:53:05;;;;;;;6.47;2.42;;;19.30;99.90;;;;;;5070287;28;20494;-70
2023/09/03 09:55:32;;;;;;;6.90;2.33;;;19.40;99.90;;;;;;5067384;28;20094;-71
2023/09/03 09:58:01;;;;;;;5.35;2.20;;;19.40;99.90;;;;;;5058654;28;20726;-71
2023/09/03 10:00:34;;;;;;;5.53;2.00;;;19.50;99.90;;;;;;5065461;28;20787;-71
2023/09/03 10:03:00;;;;;;;4.50;1.88;;;19.50;99.90;;;;;;5082642;28;20044;-70
2023/09/03 10:05:26;;;;;;;5.13;2.05;;;19.60;99.90;;;;;;5080928;28;20564;-71
2023/09/03 10:07:53;;;;;;;6.40;2.00;;;19.60;99.90;;;;;;5047055;28;20044;-70
2023/09/03 10:10:19;;;;;;;5.97;1.88;;;19.60;99.90;;;;;;5065859;28;20090;-71
2023/09/03 10:12:45;;;;;;;6.60;2.30;;;19.70;99.90;;;;;;5059138;28;20055;-71
2023/09/03 10:15:13;;;;;;;6.55;2.42;;;19.70;99.90;;;;;;5062226;28;20040;-70
2023/09/03 10:17:41;;;;;;;5.50;2.17;;;19.70;99.90;;;;;;5066129;28;20048;-70
2023/09/03 10:20:15;;;;;;;5.93;2.17;;;19.80;99.90;;;;;;5058629;28;20482;-71
2023/09/03 10:22:44;;;;;;;5.38;1.90;;;19.80;99.90;;;;;;5049144;28;20506;-70
2023/09/03 10:25:16;;;;;;;5.50;1.80;;;19.90;99.90;;;;;;5048014;28;20045;-71
2023/09/03 10:27:58;;;;;;;6.55;2.58;;;19.90;99.90;;;;;;5063722;28;20631;-70
2023/09/03 10:30:32;;;;;;;4.70;2.00;;;20.00;99.90;;;;;;5065332;28;20466;-70
2023/09/03 10:32:58;;;;;;;6.75;2.20;;;20.10;99.90;;;;;;5064273;28;20941;-71
2023/09/03 10:35:23;;;;;;;5.65;2.00;;;20.10;99.90;;;;;;5060230;28;20410;-71
2023/09/03 10:37:50;;;;;;;4.72;1.52;;;20.10;99.90;;;;;;5055036;28;20052;-71
2023/09/03 10:40:21;;;;;;;4.90;1.48;;;20.10;99.90;;;;;;5051110;28;20045;-69
2023/09/03 10:42:51;;;;;;;5.63;1.90;;;20.10;99.90;;;;;;5065218;28;20433;-70
2023/09/03 10:45:19;;;;;;;4.38;1.80;;;20.10;99.90;;;;;;5062987;28;20040;-71
2023/09/03 10:48:05;;;;;;;3.85;1.70;;;20.20;99.90;;;;;;5055535;28;20045;-70
2023/09/03 10:50:50;;;;;;;7.15;1.85;;;20.20;99.90;;;;;;5062850;28;20076;-70
2023/09/03 10:53:39;;;;;;;5.07;1.63;;;20.30;99.90;;;;;;5066891;28;20072;-71
2023/09/03 10:56:15;;;;;;;5.88;2.20;;;20.30;99.90;;;;;;5044199;28;20059;-71
2023/09/03 10:59:01;;;;;;;3.55;1.80;;;20.40;99.90;;;;;;5057617;28;20143;-71
2023/09/03 11:01:31;;;;;;;4.47;1.75;;;20.40;99.90;;;;;;5046589;28;20410;-71
2023/09/03 11:03:58;;;;;;;6.47;2.00;;;20.50;99.90;;;;;;5055592;28;20457;-70
2023/09/03 11:06:34;;;;;;;6.75;1.90;;;20.50;99.90;;;;;;5061442;28;20082;-71
2023/09/03 11:09:12;;;;;;;3.58;1.52;;;20.50;99.90;;;;;;5064348;28;20156;-71
2023/09/03 11:11:38;;;;;;;3.30;1.40;;;20.60;99.90;;;;;;5054639;28;20049;-70
2023/09/03 11:14:06;;;;;;;4.00;1.42;;;20.60;99.90;;;;;;5064155;28;20044;-71
2023/09/03 11:16:34;;;;;;;5.25;1.58;;;20.60;99.90;;;;;;5066361;28;20082;-71
2023/09/03 11:19:03;;;;;;;4.68;1.67;;;20.70;99.90;;;;;;5062468;28;20746;-71
2023/09/03 11:21:29;;;;;;;5.47;1.63;;;20.70;99.90;;;;;;5061437;28;20048;-71
2023/09/03 11:23:58;;;;;;;5.65;1.58;;;20.70;99.90;;;;;;5048556;28;20734;-71
2023/09/03 11:26:23;;;;;;;4.47;1.52;;;20.70;99.90;;;;;;5064523;28;20121;-71
2023/09/03 11:28:49;;;;;;;3.78;1.50;;;20.80;99.90;;;;;;5064056;28;20048;-71
2023/09/03 11:31:15;;;;;;;4.50;1.48;;;20.80;99.90;;;;;;5059004;28;20573;-71
2023/09/03 11:33:40;;;;;;;4.13;1.58;;;20.90;99.90;;;;;;5064600;28;20098;-71
2023/09/03 11:36:06;;;;;;;4.78;1.63;;;20.90;99.90;;;;;;5052597;28;20041;-71
2023/09/03 11:38:33;;;;;;;5.20;1.50;;;21.00;99.90;;;;;;5058603;28;20049;-71
2023/09/03 11:40:59;;;;;;;4.78;1.40;;;21.00;99.90;;;;;;5047493;28;20557;-71
2023/09/03 11:43:28;;;;;;;4.95;1.60;;;21.00;99.90;;;;;;5061457;28;20119;-71
2023/09/03 11:45:54;;;;;;;3.33;1.40;;;21.00;99.90;;;;;;5059018;28;20044;-71
2023/09/03 11:48:27;;;;;;;5.47;1.27;;;21.00;99.90;;;;;;5042607;28;20615;-71
2023/09/03 11:50:54;;;;;;;5.03;1.20;;;21.00;99.90;;;;;;5046395;28;20055;-70
2023/09/03 11:53:20;;;;;;;4.88;1.60;;;21.00;99.90;;;;;;5066833;28;20043;-71
2023/09/03 11:55:52;;;;;;;4.43;1.40;;;21.00;99.90;;;;;;5068399;28;20513;-71
2023/09/03 11:58:22;;;;;;;5.13;1.30;;;21.00;99.90;;;;;;5063734;28;20045;-71
2023/09/03 12:00:48;;;;;;;2.88;1.10;;;21.00;99.90;;;;;;5051454;28;20119;-72
2023/09/03 12:03:15;;;;;;;4.45;1.23;;;21.00;99.90;;;;;;5055531;28;20040;-71
2023/09/03 12:05:40;;;;;;;4.93;1.17;;;21.00;99.90;;;;;;5040735;28;20045;-71
2023/09/03 12:08:06;;;;;;;2.65;0.95;;;21.00;99.90;;;;;;5069679;28;20044;-70
2023/09/03 12:10:32;;;;;;;5.60;1.42;;;21.00;99.90;;;;;;5061943;28;20085;-71
2023/09/03 12:13:03;;;;;;;4.35;1.38;;;21.00;99.90;;;;;;5047809;28;20770;-71
2023/09/03 12:15:31;;;;;;;4.35;1.13;;;21.10;99.90;;;;;;5048656;28;20126;-72
2023/09/03 12:18:07;;;;;;;2.70;1.00;;;21.20;99.90;;;;;;5050217;28;20044;-71
2023/09/03 12:20:42;;;;;;;3.30;0.95;;;21.20;99.90;;;;;;5061643;28;20072;-71
2023/09/03 12:23:19;;;;;;;4.35;1.13;;;21.30;99.90;;;;;;5059921;28;20059;-71
2023/09/03 12:25:46;;;;;;;4.38;1.48;;;21.40;99.90;;;;;;5057582;28;20060;-71
2023/09/03 12:28:12;;;;;;;4.65;1.48;;;21.50;99.90;;;;;;5060361;28;20693;-71
2023/09/03 12:31:01;;;;;;;3.47;1.20;;;21.50;99.90;;;;;;5036710;28;20211;-71
2023/09/03 12:33:33;;;;;;;3.72;1.10;;;21.50;99.90;;;;;;5061065;28;20071;-71
2023/09/03 12:36:11;;;;;;;6.05;1.40;;;21.60;99.90;;;;;;5064647;28;20588;-70
2023/09/03 12:38:47;;;;;;;4.65;1.58;;;21.70;99.90;;;;;;5064076;28;20056;-71
2023/09/03 12:41:13;;;;;;;4.68;1.70;;;21.70;99.90;;;;;;5059446;28;20036;-70
2023/09/03 12:43:39;;;;;;;3.78;1.10;;;21.80;99.90;;;;;;5064656;28;20463;-70
2023/09/03 12:46:05;;;;;;;4.43;1.20;;;21.80;99.90;;;;;;5060934;28;20430;-70
2023/09/03 12:48:31;;;;;;;4.03;1.20;;;21.80;99.90;;;;;;5061124;28;20137;-71
2023/09/03 12:50:56;;;;;;;3.80;1.10;;;21.80;99.90;;;;;;5059743;28;20938;-71